createdAt,value
2019-01-08T00:00:03.785Z,1007.34
2019-01-08T00:01:02.615Z,1007.29
2019-01-08T00:02:02.598Z,1007.30
2019-01-08T00:03:02.596Z,1007.24
2019-01-08T00:04:02.587Z,1007.20
2019-01-08T00:05:02.577Z,1007.19
2019-01-08T00:06:02.569Z,1007.14
2019-01-08T00:07:02.564Z,1007.18
2019-01-08T00:08:02.551Z,1007.11
2019-01-08T00:10:34.723Z,1007.14
2019-01-08T00:11:34.705Z,1007.04
2019-01-08T00:13:27.601Z,1006.99
2019-01-08T00:14:27.582Z,1006.94
2019-01-08T00:16:20.968Z,1006.84
2019-01-08T00:17:20.948Z,1006.82
2019-01-08T00:19:14.337Z,1006.82
2019-01-08T00:20:14.314Z,1006.77
2019-01-08T00:22:07.694Z,1006.71
2019-01-08T00:33:51.698Z,1006.42
2019-01-08T00:34:33.092Z,1006.39
2019-01-08T00:36:26.475Z,1006.36
2019-01-08T00:37:26.462Z,1006.35
2019-01-08T00:39:19.849Z,1006.30
2019-01-08T00:40:19.827Z,1006.19
2019-01-08T00:42:13.207Z,1006.20
2019-01-08T00:43:13.195Z,1006.11
2019-01-08T00:45:06.592Z,1006.11
2019-01-08T00:46:06.570Z,1006.03
2019-01-08T00:47:59.955Z,1006.07
2019-01-08T00:48:59.941Z,1006.05
2019-01-08T00:50:53.330Z,1006.03
2019-01-08T00:51:53.310Z,1005.99
2019-01-08T00:53:46.699Z,1005.97
2019-01-08T00:54:46.698Z,1005.96
2019-01-08T00:56:40.079Z,1005.91
2019-01-08T00:57:40.052Z,1005.89
2019-01-08T00:59:33.442Z,1005.88
2019-01-08T01:00:33.419Z,1005.88
2019-01-08T01:02:26.799Z,1005.80
2019-01-08T01:03:26.788Z,1005.79
2019-01-08T01:05:20.177Z,1005.76
2019-01-08T01:06:20.150Z,1005.68
2019-01-08T01:08:13.052Z,1005.62
2019-01-08T01:09:13.035Z,1005.66
2019-01-08T01:11:06.429Z,1005.50
2019-01-08T01:12:06.403Z,1005.50
2019-01-08T01:13:59.781Z,1005.45
2019-01-08T01:14:59.769Z,1005.45
2019-01-08T01:16:53.159Z,1005.38
2019-01-08T01:17:53.139Z,1005.31
2019-01-08T01:19:46.537Z,1005.22
2019-01-08T01:20:46.515Z,1005.22
2019-01-08T01:22:39.903Z,1005.19
2019-01-08T01:23:39.892Z,1005.04
2019-01-08T01:25:33.289Z,1005.10
2019-01-08T01:26:33.269Z,1005.07
2019-01-08T01:28:26.657Z,1005.08
2019-01-08T01:29:26.648Z,1005.06
2019-01-08T01:31:20.035Z,1005.03
2019-01-08T01:32:20.013Z,1004.99
2019-01-08T01:33:20.006Z,1004.98
2019-01-08T01:34:19.994Z,1004.93
2019-01-08T01:35:19.987Z,1004.87
2019-01-08T01:36:19.981Z,1004.88
2019-01-08T01:37:19.969Z,1004.89
2019-01-08T01:38:19.960Z,1004.83
2019-01-08T01:39:19.954Z,1004.86
2019-01-08T01:40:19.942Z,1004.77
2019-01-08T01:41:19.937Z,1004.72
2019-01-08T01:42:19.926Z,1004.74
2019-01-08T01:43:19.921Z,1004.71
2019-01-08T01:44:19.911Z,1004.64
2019-01-08T01:45:19.904Z,1004.63
2019-01-08T01:46:19.905Z,1004.58
2019-01-08T01:47:19.894Z,1004.51
2019-01-08T01:48:19.878Z,1004.51
2019-01-08T01:49:19.869Z,1004.40
2019-01-08T01:50:19.861Z,1004.43
2019-01-08T01:51:19.851Z,1004.34
2019-01-08T01:52:19.844Z,1004.37
2019-01-08T01:53:19.834Z,1004.42
2019-01-08T01:54:19.827Z,1004.45
2019-01-08T01:55:19.820Z,1004.31
2019-01-08T01:56:19.808Z,1004.37
2019-01-08T01:57:19.802Z,1004.32
2019-01-08T01:58:19.794Z,1004.30
2019-01-08T01:59:19.787Z,1004.23
2019-01-08T02:00:19.777Z,1004.25
2019-01-08T02:01:19.769Z,1004.18
2019-01-08T02:02:19.761Z,1004.19
2019-01-08T02:03:19.752Z,1004.16
2019-01-08T02:04:19.744Z,1004.20
2019-01-08T02:05:19.735Z,1004.19
2019-01-08T02:06:19.727Z,1004.13
2019-01-08T02:07:19.722Z,1004.11
2019-01-08T02:08:19.710Z,1004.12
2019-01-08T02:09:19.700Z,1004.02
2019-01-08T02:10:19.696Z,1004.09
2019-01-08T02:11:19.683Z,1004.01
2019-01-08T02:12:19.680Z,1004.17
2019-01-08T02:13:19.669Z,1004.02
2019-01-08T02:14:19.658Z,1004.03
2019-01-08T02:15:19.652Z,1004.03
2019-01-08T02:16:19.642Z,1003.98
2019-01-08T02:17:19.636Z,1003.92
2019-01-08T02:18:19.625Z,1003.97
2019-01-08T02:19:19.620Z,1003.89
2019-01-08T02:20:19.609Z,1003.93
2019-01-08T02:21:19.606Z,1003.91
2019-01-08T02:22:19.591Z,1003.91
2019-01-08T02:23:19.585Z,1003.95
2019-01-08T02:24:19.576Z,1003.93
2019-01-08T02:25:19.569Z,1003.99
2019-01-08T02:26:19.562Z,1003.92
2019-01-08T02:27:19.550Z,1003.96
2019-01-08T02:28:19.546Z,1003.97
2019-01-08T02:29:19.535Z,1003.98
2019-01-08T02:30:19.528Z,1003.92
2019-01-08T02:31:19.518Z,1003.92
2019-01-08T02:32:21.892Z,1003.87
2019-01-08T02:33:19.501Z,1003.82
2019-01-08T02:34:19.492Z,1003.73
2019-01-08T02:35:19.483Z,1003.69
2019-01-08T02:36:19.478Z,1003.73
2019-01-08T02:37:19.470Z,1003.68
2019-01-08T02:38:19.460Z,1003.65
2019-01-08T02:39:19.456Z,1003.55
2019-01-08T02:40:19.443Z,1003.54
2019-01-08T02:41:19.474Z,1003.51
2019-01-08T02:42:19.425Z,1003.51
2019-01-08T02:43:19.419Z,1003.55
2019-01-08T02:44:19.452Z,1003.54
2019-01-08T02:45:19.409Z,1003.59
2019-01-08T02:46:19.566Z,1003.55
2019-01-08T02:47:19.386Z,1003.54
2019-01-08T02:48:19.377Z,1003.55
2019-01-08T02:49:19.373Z,1003.53
2019-01-08T02:50:19.363Z,1003.47
2019-01-08T02:51:19.352Z,1003.46
2019-01-08T02:52:19.346Z,1003.43
2019-01-08T02:53:19.338Z,1003.38
2019-01-08T02:54:19.402Z,1003.38
2019-01-08T02:55:19.318Z,1003.30
2019-01-08T02:56:19.311Z,1003.27
2019-01-08T02:57:19.302Z,1003.22
2019-01-08T02:58:19.295Z,1003.22
2019-01-08T02:59:25.096Z,1003.17
2019-01-08T03:00:19.281Z,1003.20
2019-01-08T03:01:19.271Z,1003.20
2019-01-08T03:02:19.261Z,1003.11
2019-01-08T03:03:19.253Z,1003.10
2019-01-08T03:04:19.246Z,1003.05
2019-01-08T03:05:19.237Z,1003.05
2019-01-08T03:06:19.230Z,1003.00
2019-01-08T03:07:19.221Z,1002.96
2019-01-08T03:08:19.213Z,1002.91
2019-01-08T03:09:19.204Z,1002.83
2019-01-08T03:10:19.197Z,1002.80
2019-01-08T03:11:19.189Z,1002.79
2019-01-08T03:12:19.181Z,1002.74
2019-01-08T03:13:19.173Z,1002.72
2019-01-08T03:14:19.165Z,1002.73
2019-01-08T03:15:19.155Z,1002.68
2019-01-08T03:16:19.149Z,1002.67
2019-01-08T03:17:19.140Z,1002.66
2019-01-08T03:18:19.130Z,1002.66
2019-01-08T03:19:19.122Z,1002.62
2019-01-08T03:20:19.114Z,1002.64
2019-01-08T03:21:19.108Z,1002.62
2019-01-08T03:22:19.099Z,1002.64
2019-01-08T03:23:19.089Z,1002.56
2019-01-08T03:24:19.083Z,1002.57
2019-01-08T03:25:19.075Z,1002.52
2019-01-08T03:26:19.067Z,1002.56
2019-01-08T03:27:19.057Z,1002.60
2019-01-08T03:28:19.050Z,1002.52
2019-01-08T03:29:19.043Z,1002.50
2019-01-08T03:30:19.034Z,1002.46
2019-01-08T03:31:19.026Z,1002.42
2019-01-08T03:32:19.017Z,1002.46
2019-01-08T03:33:19.010Z,1002.36
2019-01-08T03:34:19.001Z,1002.35
2019-01-08T03:35:18.994Z,1002.37
2019-01-08T03:36:18.990Z,1002.34
2019-01-08T03:37:18.978Z,1002.35
2019-01-08T03:38:18.969Z,1002.36
2019-01-08T03:39:18.960Z,1002.36
2019-01-08T03:40:18.954Z,1002.30
2019-01-08T03:41:18.944Z,1002.31
2019-01-08T03:42:18.933Z,1002.26
2019-01-08T03:43:18.928Z,1002.21
2019-01-08T03:44:18.920Z,1002.17
2019-01-08T03:45:18.911Z,1002.13
2019-01-08T03:46:18.904Z,1002.15
2019-01-08T03:47:18.967Z,1002.12
2019-01-08T03:48:18.887Z,1002.09
2019-01-08T03:49:18.882Z,1002.04
2019-01-08T03:50:18.872Z,1002.03
2019-01-08T03:51:18.862Z,1001.96
2019-01-08T03:52:18.853Z,1001.98
2019-01-08T03:53:18.848Z,1002.00
2019-01-08T03:54:18.838Z,1001.95
2019-01-08T03:55:18.827Z,1001.91
2019-01-08T03:56:18.822Z,1001.92
2019-01-08T03:57:18.815Z,1001.90
2019-01-08T03:58:18.803Z,1001.86
2019-01-08T03:59:18.796Z,1001.83
2019-01-08T04:00:18.788Z,1001.80
2019-01-08T04:01:18.780Z,1001.78
2019-01-08T04:02:18.771Z,1001.74
2019-01-08T04:03:18.765Z,1001.65
2019-01-08T04:04:18.756Z,1001.63
2019-01-08T04:05:18.748Z,1001.61
2019-01-08T04:06:18.738Z,1001.62
2019-01-08T04:07:18.732Z,1001.60
2019-01-08T04:08:18.726Z,1001.61
2019-01-08T04:09:18.715Z,1001.61
2019-01-08T04:10:18.706Z,1001.61
2019-01-08T04:11:18.697Z,1001.60
2019-01-08T04:12:18.688Z,1001.60
2019-01-08T04:13:18.681Z,1001.56
2019-01-08T04:14:18.672Z,1001.55
2019-01-08T04:15:18.665Z,1001.54
2019-01-08T04:16:18.659Z,1001.55
2019-01-08T04:17:18.652Z,1001.59
2019-01-08T04:18:18.639Z,1001.59
2019-01-08T04:19:18.629Z,1001.53
2019-01-08T04:20:18.624Z,1001.50
2019-01-08T04:21:18.614Z,1001.47
2019-01-08T04:22:18.605Z,1001.49
2019-01-08T04:23:18.598Z,1001.47
2019-01-08T04:24:18.589Z,1001.43
2019-01-08T04:25:18.580Z,1001.42
2019-01-08T04:26:18.576Z,1001.34
2019-01-08T04:27:18.564Z,1001.26
2019-01-08T04:28:18.555Z,1001.31
2019-01-08T04:29:18.547Z,1001.26
2019-01-08T04:30:18.540Z,1001.23
2019-01-08T04:31:18.535Z,1001.24
2019-01-08T04:32:18.524Z,1001.21
2019-01-08T04:33:18.514Z,1001.18
2019-01-08T04:34:18.505Z,1001.13
2019-01-08T04:35:18.496Z,1001.07
2019-01-08T04:36:18.489Z,1001.08
2019-01-08T04:37:18.481Z,1001.07
2019-01-08T04:38:18.472Z,1001.01
2019-01-08T04:39:18.469Z,1001.00
2019-01-08T04:40:18.456Z,1000.91
2019-01-08T04:41:18.446Z,1000.88
2019-01-08T04:42:18.437Z,1000.83
2019-01-08T04:43:18.431Z,1000.82
2019-01-08T04:44:18.422Z,1000.75
2019-01-08T04:45:18.413Z,1000.74
2019-01-08T04:46:18.404Z,1000.71
2019-01-08T04:47:18.396Z,1000.63
2019-01-08T04:48:18.387Z,1000.58
2019-01-08T04:49:18.378Z,1000.58
2019-01-08T04:50:18.369Z,1000.57
2019-01-08T04:51:18.362Z,1000.52
2019-01-08T04:52:18.356Z,1000.47
2019-01-08T04:53:18.347Z,1000.39
2019-01-08T04:54:18.337Z,1000.35
2019-01-08T04:55:18.329Z,1000.23
2019-01-08T04:56:18.322Z,1000.23
2019-01-08T04:57:18.311Z,1000.21
2019-01-08T04:58:18.306Z,1000.17
2019-01-08T04:59:18.295Z,1000.17
2019-01-08T05:00:18.287Z,1000.17
2019-01-08T05:01:18.278Z,1000.13
2019-01-08T05:02:18.270Z,1000.11
2019-01-08T05:03:18.261Z,1000.04
2019-01-08T05:04:18.252Z,1000.00
2019-01-08T05:05:18.246Z,999.99
2019-01-08T05:06:18.235Z,1000.00
2019-01-08T05:07:18.227Z,1000.02
2019-01-08T05:08:18.218Z,999.88
2019-01-08T05:09:18.211Z,999.94
2019-01-08T05:10:18.200Z,999.95
2019-01-08T05:11:18.191Z,999.91
2019-01-08T05:12:18.184Z,999.95
2019-01-08T05:13:18.176Z,999.97
2019-01-08T05:14:18.165Z,999.97
2019-01-08T05:15:18.157Z,999.96
2019-01-08T05:16:18.148Z,999.94
2019-01-08T05:17:18.141Z,999.94
2019-01-08T05:18:18.131Z,999.91
2019-01-08T05:19:18.123Z,999.91
2019-01-08T05:20:18.115Z,999.90
2019-01-08T05:21:18.108Z,999.95
2019-01-08T05:22:18.095Z,999.87
2019-01-08T05:23:18.089Z,999.91
2019-01-08T05:24:18.081Z,999.91
2019-01-08T05:25:18.074Z,999.85
2019-01-08T05:26:18.062Z,999.81
2019-01-08T05:27:18.055Z,999.78
2019-01-08T05:28:18.045Z,999.76
2019-01-08T05:29:18.036Z,999.69
2019-01-08T05:30:18.028Z,999.71
2019-01-08T05:31:18.019Z,999.65
2019-01-08T05:32:18.010Z,999.65
2019-01-08T05:33:18.001Z,999.62
2019-01-08T05:34:17.993Z,999.62
2019-01-08T05:35:17.985Z,999.63
2019-01-08T05:36:17.979Z,999.61
2019-01-08T05:37:17.967Z,999.54
2019-01-08T05:38:17.958Z,999.50
2019-01-08T05:39:17.948Z,999.52
2019-01-08T05:40:17.941Z,999.53
2019-01-08T05:41:17.934Z,999.47
2019-01-08T05:42:17.924Z,999.39
2019-01-08T05:43:17.918Z,999.35
2019-01-08T05:44:17.910Z,999.35
2019-01-08T05:45:17.890Z,999.34
2019-01-08T05:46:17.890Z,999.32
2019-01-08T05:47:17.881Z,999.32
2019-01-08T05:48:17.871Z,999.30
2019-01-08T05:49:17.864Z,999.31
2019-01-08T05:50:17.856Z,999.31
2019-01-08T05:51:17.849Z,999.29
2019-01-08T05:52:17.839Z,999.31
2019-01-08T05:53:17.830Z,999.25
2019-01-08T05:54:17.819Z,999.26
2019-01-08T05:55:18.286Z,999.23
2019-01-08T05:56:17.804Z,999.17
2019-01-08T05:57:17.794Z,999.24
2019-01-08T05:58:17.787Z,999.12
2019-01-08T05:59:17.776Z,999.06
2019-01-08T06:00:17.777Z,999.03
2019-01-08T06:01:17.760Z,999.03
2019-01-08T06:02:17.757Z,999.05
2019-01-08T06:03:17.743Z,999.07
2019-01-08T06:04:17.736Z,999.03
2019-01-08T06:05:17.776Z,999.02
2019-01-08T06:06:17.718Z,999.02
2019-01-08T06:07:17.711Z,998.99
2019-01-08T06:08:17.702Z,999.02
2019-01-08T06:09:17.697Z,998.97
2019-01-08T06:10:17.685Z,998.92
2019-01-08T06:11:17.676Z,998.92
2019-01-08T06:12:17.667Z,998.91
2019-01-08T06:13:17.661Z,998.84
2019-01-08T06:14:17.653Z,998.84
2019-01-08T06:15:17.642Z,998.76
2019-01-08T06:16:17.649Z,998.71
2019-01-08T06:17:17.625Z,998.80
2019-01-08T06:18:17.617Z,998.69
2019-01-08T06:19:17.607Z,998.73
2019-01-08T06:20:17.602Z,998.72
2019-01-08T06:21:17.593Z,998.65
2019-01-08T06:22:17.582Z,998.67
2019-01-08T06:23:17.576Z,998.61
2019-01-08T06:24:17.567Z,998.59
2019-01-08T06:25:17.560Z,998.53
2019-01-08T06:26:17.547Z,998.51
2019-01-08T06:27:17.541Z,998.50
2019-01-08T06:28:17.533Z,998.45
2019-01-08T06:29:17.524Z,998.39
2019-01-08T06:30:24.724Z,998.44
2019-01-08T06:31:17.504Z,998.39
2019-01-08T06:32:17.498Z,998.36
2019-01-08T06:33:17.490Z,998.31
2019-01-08T06:34:17.482Z,998.33
2019-01-08T06:35:17.475Z,998.25
2019-01-08T06:36:17.464Z,998.22
2019-01-08T06:37:17.456Z,998.25
2019-01-08T06:38:17.448Z,998.21
2019-01-08T06:39:17.440Z,998.17
2019-01-08T06:40:17.435Z,998.16
2019-01-08T06:41:17.421Z,998.21
2019-01-08T06:42:17.415Z,998.22
2019-01-08T06:43:17.639Z,998.14
2019-01-08T06:44:17.397Z,998.07
2019-01-08T06:45:17.389Z,998.12
2019-01-08T06:46:17.379Z,998.04
2019-01-08T06:47:17.371Z,998.07
2019-01-08T06:48:17.364Z,997.98
2019-01-08T06:49:17.355Z,998.00
2019-01-08T06:50:17.347Z,997.95
2019-01-08T06:51:17.339Z,998.00
2019-01-08T06:52:17.374Z,997.95
2019-01-08T06:53:17.324Z,997.94
2019-01-08T06:54:17.317Z,997.94
2019-01-08T06:55:17.305Z,997.92
2019-01-08T06:56:17.297Z,997.94
2019-01-08T06:57:17.288Z,997.87
2019-01-08T06:58:17.281Z,997.86
2019-01-08T06:59:17.272Z,997.85
2019-01-08T07:00:17.262Z,997.76
2019-01-08T07:01:17.254Z,997.79
2019-01-08T07:02:17.247Z,997.80
2019-01-08T07:03:17.239Z,997.76
2019-01-08T07:04:17.230Z,997.68
2019-01-08T07:05:17.222Z,997.69
2019-01-08T07:06:17.212Z,997.71
2019-01-08T07:07:17.203Z,997.68
2019-01-08T07:08:17.195Z,997.65
2019-01-08T07:09:17.189Z,997.62
2019-01-08T07:10:17.180Z,997.63
2019-01-08T07:11:17.169Z,997.62
2019-01-08T07:12:17.163Z,997.53
2019-01-08T07:13:17.157Z,997.55
2019-01-08T07:14:17.145Z,997.54
2019-01-08T07:15:17.138Z,997.50
2019-01-08T07:16:17.131Z,997.47
2019-01-08T07:17:17.126Z,997.44
2019-01-08T07:18:17.111Z,997.42
2019-01-08T07:19:17.109Z,997.37
2019-01-08T07:20:17.094Z,997.35
2019-01-08T07:21:17.087Z,997.32
2019-01-08T07:22:17.088Z,997.34
2019-01-08T07:23:17.069Z,997.34
2019-01-08T07:24:17.063Z,997.29
2019-01-08T07:25:17.054Z,997.34
2019-01-08T07:26:17.046Z,997.22
2019-01-08T07:27:17.042Z,997.18
2019-01-08T07:28:17.029Z,997.20
2019-01-08T07:29:17.021Z,997.14
2019-01-08T07:30:17.013Z,997.14
2019-01-08T07:31:17.002Z,997.15
2019-01-08T07:32:16.995Z,997.18
2019-01-08T07:33:16.989Z,997.11
2019-01-08T07:34:16.978Z,997.02
2019-01-08T07:35:16.970Z,996.98
2019-01-08T07:36:16.961Z,996.95
2019-01-08T07:37:16.953Z,996.87
2019-01-08T07:38:16.944Z,996.82
2019-01-08T07:39:16.937Z,996.76
2019-01-08T07:40:16.930Z,996.80
2019-01-08T07:41:16.921Z,996.72
2019-01-08T07:42:17.194Z,996.73
2019-01-08T07:43:16.906Z,996.73
2019-01-08T07:44:16.895Z,996.68
2019-01-08T07:45:16.886Z,996.58
2019-01-08T07:46:16.881Z,996.68
2019-01-08T07:47:16.883Z,996.64
2019-01-08T07:48:16.862Z,996.59
2019-01-08T07:49:16.853Z,996.52
2019-01-08T07:50:16.847Z,996.62
2019-01-08T07:51:16.836Z,996.51
2019-01-08T07:52:16.829Z,996.53
2019-01-08T07:53:16.821Z,996.55
2019-01-08T07:54:16.811Z,996.53
2019-01-08T07:55:16.802Z,996.45
2019-01-08T07:56:16.796Z,996.47
2019-01-08T07:57:16.791Z,996.41
2019-01-08T07:58:16.777Z,996.44
2019-01-08T07:59:16.772Z,996.39
2019-01-08T08:00:16.762Z,996.43
2019-01-08T08:01:16.753Z,996.32
2019-01-08T08:02:16.746Z,996.37
2019-01-08T08:03:16.737Z,996.33
2019-01-08T08:04:16.730Z,996.32
2019-01-08T08:05:16.721Z,996.31
2019-01-08T08:06:16.712Z,996.28
2019-01-08T08:07:16.705Z,996.23
2019-01-08T08:08:16.698Z,996.27
2019-01-08T08:09:16.686Z,996.26
2019-01-08T08:10:16.679Z,996.21
2019-01-08T08:11:16.670Z,996.26
2019-01-08T08:12:16.663Z,996.25
2019-01-08T08:13:16.654Z,996.29
2019-01-08T08:14:16.647Z,996.20
2019-01-08T08:15:16.638Z,996.23
2019-01-08T08:16:16.636Z,996.14
2019-01-08T08:17:16.623Z,996.15
2019-01-08T08:18:16.612Z,996.05
2019-01-08T08:19:16.603Z,996.12
2019-01-08T08:20:16.604Z,996.12
2019-01-08T08:21:16.588Z,996.12
2019-01-08T08:22:16.579Z,996.05
2019-01-08T08:23:16.563Z,996.03
2019-01-08T08:24:16.563Z,996.02
2019-01-08T08:25:16.555Z,995.99
2019-01-08T08:26:16.546Z,995.93
2019-01-08T08:27:16.536Z,995.89
2019-01-08T08:28:16.528Z,995.99
2019-01-08T08:29:16.521Z,995.95
2019-01-08T08:30:16.512Z,995.89
2019-01-08T08:31:16.504Z,995.75
2019-01-08T08:32:16.498Z,995.83
2019-01-08T08:33:16.489Z,995.83
2019-01-08T08:34:16.479Z,995.76
2019-01-08T08:35:16.472Z,995.81
2019-01-08T08:36:16.462Z,995.66
2019-01-08T08:37:16.453Z,995.71
2019-01-08T08:38:16.450Z,995.54
2019-01-08T08:39:16.436Z,995.58
2019-01-08T08:40:16.431Z,995.57
2019-01-08T08:41:16.421Z,995.60
2019-01-08T08:42:16.412Z,995.57
2019-01-08T08:43:16.403Z,995.49
2019-01-08T08:44:16.395Z,995.48
2019-01-08T08:45:16.387Z,995.51
2019-01-08T08:46:16.379Z,995.41
2019-01-08T08:47:16.371Z,995.44
2019-01-08T08:48:16.362Z,995.42
2019-01-08T08:49:16.354Z,995.41
2019-01-08T08:50:16.345Z,995.38
2019-01-08T08:51:16.341Z,995.41
2019-01-08T08:52:16.333Z,995.30
2019-01-08T08:53:16.322Z,995.35
2019-01-08T08:54:16.312Z,995.29
2019-01-08T08:55:16.303Z,995.28
2019-01-08T08:56:16.302Z,995.29
2019-01-08T08:57:16.288Z,995.20
2019-01-08T08:58:16.279Z,995.25
2019-01-08T08:59:16.270Z,995.18
2019-01-08T09:00:16.262Z,995.14
2019-01-08T09:01:16.257Z,995.02
2019-01-08T09:02:16.245Z,995.08
2019-01-08T09:03:16.238Z,995.05
2019-01-08T09:04:16.235Z,995.07
2019-01-08T09:05:16.225Z,995.04
2019-01-08T09:06:16.215Z,994.94
2019-01-08T09:07:16.205Z,994.99
2019-01-08T09:08:16.196Z,994.93
2019-01-08T09:09:16.188Z,994.87
2019-01-08T09:10:16.180Z,994.91
2019-01-08T09:11:16.173Z,994.93
2019-01-08T09:12:16.166Z,994.92
2019-01-08T09:13:16.158Z,994.85
2019-01-08T09:14:16.152Z,994.85
2019-01-08T09:15:16.140Z,994.87
2019-01-08T09:16:16.133Z,994.88
2019-01-08T09:17:16.121Z,994.87
2019-01-08T09:18:16.116Z,994.80
2019-01-08T09:19:16.112Z,994.74
2019-01-08T09:20:16.099Z,994.82
2019-01-08T09:21:16.106Z,994.74
2019-01-08T09:22:16.082Z,994.72
2019-01-08T09:23:16.074Z,994.61
2019-01-08T09:24:16.069Z,994.64
2019-01-08T09:25:16.060Z,994.58
2019-01-08T09:26:16.052Z,994.63
2019-01-08T09:27:16.041Z,994.55
2019-01-08T09:28:16.033Z,994.54
2019-01-08T09:29:16.024Z,994.51
2019-01-08T09:30:16.016Z,994.54
2019-01-08T09:31:16.018Z,994.45
2019-01-08T09:32:16.000Z,994.46
2019-01-08T09:33:15.992Z,994.49
2019-01-08T09:34:15.979Z,994.50
2019-01-08T09:35:15.973Z,994.53
2019-01-08T09:36:15.971Z,994.38
2019-01-08T09:37:15.958Z,994.36
2019-01-08T09:38:15.952Z,994.43
2019-01-08T09:39:15.940Z,994.40
2019-01-08T09:40:15.933Z,994.31
2019-01-08T09:41:15.928Z,994.32
2019-01-08T09:42:15.996Z,994.35
2019-01-08T09:43:15.908Z,994.31
2019-01-08T09:44:15.905Z,994.36
2019-01-08T09:45:15.896Z,994.28
2019-01-08T09:46:15.884Z,994.22
2019-01-08T09:47:15.881Z,994.27
2019-01-08T09:48:15.871Z,994.25
2019-01-08T09:49:15.860Z,994.19
2019-01-08T09:50:15.868Z,994.21
2019-01-08T09:51:15.842Z,994.20
2019-01-08T09:52:15.837Z,994.17
2019-01-08T09:53:15.827Z,994.21
2019-01-08T09:54:15.818Z,994.16
2019-01-08T09:55:15.887Z,994.16
2019-01-08T09:56:15.802Z,993.94
2019-01-08T09:57:15.807Z,994.00
2019-01-08T09:58:15.787Z,993.96
2019-01-08T09:59:15.777Z,993.83
2019-01-08T10:00:15.771Z,993.94
2019-01-08T10:01:23.578Z,993.89
2019-01-08T10:02:15.752Z,993.80
2019-01-08T10:03:15.744Z,993.82
2019-01-08T10:04:15.737Z,993.81
2019-01-08T10:05:15.727Z,993.81
2019-01-08T10:06:15.723Z,993.75
2019-01-08T10:07:15.713Z,993.77
2019-01-08T10:08:15.703Z,993.72
2019-01-08T10:09:15.697Z,993.72
2019-01-08T10:10:15.686Z,993.69
2019-01-08T10:11:15.679Z,993.66
2019-01-08T10:12:15.671Z,993.64
2019-01-08T10:13:15.664Z,993.62
2019-01-08T10:14:15.717Z,993.63
2019-01-08T10:15:15.646Z,993.60
2019-01-08T10:16:15.642Z,993.56
2019-01-08T10:17:15.631Z,993.58
2019-01-08T10:18:15.621Z,993.57
2019-01-08T10:19:15.614Z,993.53
2019-01-08T10:20:15.606Z,993.54
2019-01-08T10:21:15.597Z,993.53
2019-01-08T10:22:15.588Z,993.41
2019-01-08T10:23:15.581Z,993.46
2019-01-08T10:24:15.572Z,993.39
2019-01-08T10:25:15.569Z,993.33
2019-01-08T10:26:15.558Z,993.36
2019-01-08T10:27:15.550Z,993.35
2019-01-08T10:28:15.539Z,993.35
2019-01-08T10:29:15.535Z,993.30
2019-01-08T10:30:15.565Z,993.15
2019-01-08T10:31:15.516Z,993.28
2019-01-08T10:32:15.507Z,993.35
2019-01-08T10:33:15.499Z,993.30
2019-01-08T10:34:15.491Z,993.27
2019-01-08T10:35:15.484Z,993.34
2019-01-08T10:36:15.475Z,993.20
2019-01-08T10:37:15.469Z,993.25
2019-01-08T10:38:15.460Z,993.19
2019-01-08T10:39:15.453Z,993.13
2019-01-08T10:40:15.442Z,993.11
2019-01-08T10:41:15.435Z,993.01
2019-01-08T10:42:15.425Z,993.16
2019-01-08T10:43:15.417Z,993.21
2019-01-08T10:44:15.409Z,993.23
2019-01-08T10:45:15.413Z,993.13
2019-01-08T10:46:15.393Z,993.14
2019-01-08T10:47:15.385Z,993.02
2019-01-08T10:48:15.380Z,993.12
2019-01-08T10:49:15.372Z,992.99
2019-01-08T10:50:15.360Z,992.99
2019-01-08T10:51:15.351Z,993.10
2019-01-08T10:52:15.345Z,992.98
2019-01-08T10:53:15.340Z,992.97
2019-01-08T10:54:15.330Z,992.92
2019-01-08T10:55:15.319Z,992.93
2019-01-08T10:56:15.314Z,992.97
2019-01-08T10:57:15.306Z,992.89
2019-01-08T10:58:15.296Z,992.92
2019-01-08T10:59:15.290Z,992.94
2019-01-08T11:00:15.279Z,992.78
2019-01-08T11:01:15.273Z,992.73
2019-01-08T11:02:15.261Z,992.83
2019-01-08T11:03:15.255Z,992.85
2019-01-08T11:04:15.246Z,992.82
2019-01-08T11:05:15.239Z,992.77
2019-01-08T11:06:15.230Z,992.76
2019-01-08T11:07:15.243Z,992.72
2019-01-08T11:08:15.219Z,992.70
2019-01-08T11:09:15.248Z,992.73
2019-01-08T11:10:15.197Z,992.75
2019-01-08T11:11:15.189Z,992.70
2019-01-08T11:12:15.181Z,992.68
2019-01-08T11:13:15.173Z,992.73
2019-01-08T11:14:15.163Z,992.74
2019-01-08T11:15:15.155Z,992.70
2019-01-08T11:16:15.146Z,992.66
2019-01-08T11:17:15.213Z,992.59
2019-01-08T11:18:15.129Z,992.63
2019-01-08T11:19:15.127Z,992.63
2019-01-08T11:20:15.114Z,992.61
2019-01-08T11:21:15.107Z,992.58
2019-01-08T11:22:15.099Z,992.57
2019-01-08T11:23:15.091Z,992.50
2019-01-08T11:24:15.084Z,992.44
2019-01-08T11:25:15.074Z,992.40
2019-01-08T11:26:15.064Z,992.50
2019-01-08T11:27:15.050Z,992.45
2019-01-08T11:28:15.050Z,992.35
2019-01-08T11:29:15.040Z,992.43
2019-01-08T11:30:15.033Z,992.33
2019-01-08T11:31:15.026Z,992.37
2019-01-08T11:32:15.020Z,992.39
2019-01-08T11:33:15.009Z,992.43
2019-01-08T11:34:14.999Z,992.36
2019-01-08T11:35:14.991Z,992.43
2019-01-08T11:36:14.983Z,992.35
2019-01-08T11:37:14.976Z,992.37
2019-01-08T11:38:14.966Z,992.26
2019-01-08T11:39:14.958Z,992.37
2019-01-08T11:40:14.950Z,992.36
2019-01-08T11:41:14.947Z,992.35
2019-01-08T11:42:14.936Z,992.32
2019-01-08T11:43:14.928Z,992.26
2019-01-08T11:44:14.926Z,992.18
2019-01-08T11:45:14.911Z,992.26
2019-01-08T11:46:14.902Z,992.37
2019-01-08T11:47:14.893Z,992.22
2019-01-08T11:48:14.884Z,992.33
2019-01-08T11:49:14.877Z,992.35
2019-01-08T11:50:14.876Z,992.32
2019-01-08T11:51:14.859Z,992.29
2019-01-08T11:52:14.852Z,992.31
2019-01-08T11:53:14.854Z,992.25
2019-01-08T11:54:14.835Z,992.29
2019-01-08T11:55:14.826Z,992.13
2019-01-08T11:56:14.818Z,992.17
2019-01-08T11:57:14.810Z,992.25
2019-01-08T11:58:14.802Z,992.22
2019-01-08T11:59:14.797Z,992.26
2019-01-08T12:00:14.788Z,992.26
2019-01-08T12:01:14.781Z,992.22
2019-01-08T12:02:14.770Z,992.23
2019-01-08T12:03:14.762Z,992.17
2019-01-08T12:04:14.755Z,992.08
2019-01-08T12:05:14.749Z,992.16
2019-01-08T12:06:14.735Z,992.18
2019-01-08T12:07:14.730Z,992.07
2019-01-08T12:08:14.720Z,992.10
2019-01-08T12:09:14.713Z,992.07
2019-01-08T12:10:14.705Z,992.10
2019-01-08T12:11:14.701Z,992.01
2019-01-08T12:12:14.690Z,991.91
2019-01-08T12:13:14.681Z,992.08
2019-01-08T12:14:14.673Z,992.10
2019-01-08T12:15:14.662Z,992.05
2019-01-08T12:16:14.656Z,992.11
2019-01-08T12:17:14.646Z,992.08
2019-01-08T12:18:14.639Z,992.06
2019-01-08T12:19:14.631Z,992.10
2019-01-08T12:20:14.622Z,992.03
2019-01-08T12:21:14.615Z,992.08
2019-01-08T12:22:14.607Z,992.08
2019-01-08T12:23:14.597Z,992.05
2019-01-08T12:24:14.589Z,991.97
2019-01-08T12:25:14.584Z,992.06
2019-01-08T12:26:14.575Z,992.08
2019-01-08T12:27:14.564Z,992.05
2019-01-08T12:28:14.560Z,992.02
2019-01-08T12:29:14.550Z,991.98
2019-01-08T12:30:14.541Z,991.99
2019-01-08T12:31:14.531Z,991.99
2019-01-08T12:32:14.523Z,992.00
2019-01-08T12:33:14.516Z,992.04
2019-01-08T12:34:14.507Z,991.96
2019-01-08T12:35:14.498Z,991.93
2019-01-08T12:36:14.490Z,991.98
2019-01-08T12:37:14.485Z,991.89
2019-01-08T12:38:14.474Z,992.02
2019-01-08T12:39:14.469Z,992.04
2019-01-08T12:40:14.458Z,992.06
2019-01-08T12:41:14.450Z,992.01
2019-01-08T12:42:14.441Z,992.05
2019-01-08T12:43:14.436Z,992.03
2019-01-08T12:44:14.431Z,992.09
2019-01-08T12:45:14.420Z,992.10
2019-01-08T12:46:14.407Z,992.15
2019-01-08T12:47:14.479Z,992.10
2019-01-08T12:48:14.394Z,992.09
2019-01-08T12:49:14.387Z,992.12
2019-01-08T12:50:14.378Z,992.13
2019-01-08T12:51:14.369Z,992.08
2019-01-08T12:52:14.362Z,992.14